createdAt,value
2022-11-14T00:03:55.868Z,110
2022-11-14T00:09:37.242Z,100
2022-11-14T00:15:18.217Z,76
2022-11-14T00:21:00.953Z,98
2022-11-14T00:26:42.077Z,94
2022-11-14T00:37:25.410Z,78
2022-11-14T00:43:06.049Z,96
2022-11-14T00:48:49.294Z,106
2022-11-14T00:54:30.052Z,84
2022-11-14T01:00:11.298Z,110
2022-11-14T01:05:51.371Z,88
2022-11-14T01:11:33.335Z,80
2022-11-14T01:17:13.472Z,82
2022-11-14T01:22:53.883Z,90
2022-11-14T01:28:34.806Z,92
2022-11-14T01:39:54.385Z,104
2022-11-14T01:45:34.729Z,84
2022-11-14T01:51:14.935Z,80
2022-11-14T01:56:54.863Z,96
2022-11-14T02:02:35.400Z,94
2022-11-14T02:08:15.635Z,98
2022-11-14T02:13:55.529Z,100
2022-11-14T02:19:36.710Z,84
2022-11-14T02:25:19.003Z,94
2022-11-14T02:30:58.877Z,98
2022-11-14T02:36:39.632Z,80
2022-11-14T02:42:22.409Z,98
2022-11-14T02:48:02.140Z,86
2022-11-14T02:53:42.644Z,102
2022-11-14T02:59:22.646Z,90
2022-11-14T03:05:02.960Z,82
2022-11-14T03:10:48.576Z,104
2022-11-14T03:16:28.912Z,98
2022-11-14T03:22:08.785Z,90
2022-11-14T03:27:49.017Z,100
2022-11-14T03:33:33.146Z,82
2022-11-14T03:39:15.303Z,74
2022-11-14T03:44:55.594Z,94
2022-11-14T03:50:38.410Z,98
2022-11-14T03:56:21.578Z,86
2022-11-14T04:02:02.270Z,98
2022-11-14T04:14:33.072Z,88
2022-11-14T04:20:16.019Z,96
2022-11-14T04:25:56.341Z,94
2022-11-14T04:31:38.524Z,96
2022-11-14T04:37:19.317Z,82
2022-11-14T04:42:59.301Z,100
2022-11-14T04:48:39.033Z,82
2022-11-14T04:54:19.645Z,94
2022-11-14T05:00:07.900Z,94
2022-11-14T05:05:47.620Z,78
2022-11-14T05:11:30.285Z,86
2022-11-14T05:17:11.288Z,94
2022-11-14T05:22:51.136Z,92
2022-11-14T05:28:33.247Z,94
2022-11-14T05:39:53.850Z,94
2022-11-14T05:45:33.784Z,92
2022-11-14T05:51:14.676Z,96
2022-11-14T05:56:54.755Z,88
2022-11-14T06:02:35.083Z,88
2022-11-14T06:08:15.139Z,96
2022-11-14T06:13:54.871Z,88
2022-11-14T06:19:34.795Z,86
2022-11-14T06:25:14.599Z,76
2022-11-14T06:30:56.767Z,102
2022-11-14T06:36:38.681Z,92
2022-11-14T06:42:19.001Z,92
2022-11-14T06:48:01.645Z,94
2022-11-14T06:53:51.204Z,94
2022-11-14T06:59:31.317Z,84
2022-11-14T07:05:11.274Z,122
2022-11-14T07:10:51.656Z,94
2022-11-14T07:16:37.611Z,100
2022-11-14T07:22:17.600Z,88
2022-11-14T07:27:57.807Z,94
2022-11-14T07:33:37.836Z,100
2022-11-14T07:39:20.572Z,104
2022-11-14T07:45:00.633Z,94
2022-11-14T07:50:40.717Z,90
2022-11-14T07:56:20.784Z,100
2022-11-14T08:02:00.835Z,98
2022-11-14T08:07:41.606Z,96
2022-11-14T08:13:37.596Z,110
2022-11-14T08:19:20.409Z,94
2022-11-14T08:25:00.753Z,94
2022-11-14T08:30:41.082Z,100
2022-11-14T08:36:21.429Z,110
2022-11-14T08:42:01.400Z,108
2022-11-14T08:47:41.655Z,100
2022-11-14T08:53:22.004Z,98
2022-11-14T08:59:02.243Z,102
2022-11-14T09:04:43.592Z,110
2022-11-14T09:10:24.264Z,104
2022-11-14T09:16:04.363Z,100
2022-11-14T09:21:44.952Z,114
2022-11-14T09:27:25.476Z,96
2022-11-14T09:33:12.661Z,56
2022-11-14T09:38:53.706Z,48
2022-11-14T09:44:34.144Z,60
2022-11-14T09:50:14.322Z,58
2022-11-14T09:55:54.260Z,46
2022-11-14T10:01:35.246Z,56
2022-11-14T10:07:16.551Z,46
2022-11-14T10:12:56.722Z,48
2022-11-14T10:18:40.132Z,54
2022-11-14T10:24:20.292Z,50
2022-11-14T10:30:00.852Z,48
2022-11-14T10:35:41.882Z,50
2022-11-14T10:42:08.472Z,58
2022-11-14T10:47:49.199Z,58
2022-11-14T10:53:29.554Z,100
2022-11-14T10:59:08.921Z,104
2022-11-14T11:04:48.903Z,98
2022-11-14T11:10:29.468Z,104
2022-11-14T11:16:09.217Z,74
2022-11-14T11:21:50.677Z,94
2022-11-14T11:27:30.902Z,94
2022-11-14T11:33:11.013Z,60
2022-11-14T11:38:51.341Z,72
2022-11-14T11:44:31.175Z,90
2022-11-14T11:50:11.193Z,96
2022-11-14T11:55:51.828Z,70
2022-11-14T12:01:32.508Z,76
2022-11-14T12:07:13.696Z,66
2022-11-14T12:18:34.646Z,82
2022-11-14T12:24:14.553Z,106
2022-11-14T12:29:54.255Z,100
2022-11-14T12:35:35.134Z,100
2022-11-14T12:41:14.950Z,104
2022-11-14T12:46:54.993Z,94
2022-11-14T12:52:34.966Z,102
2022-11-14T12:58:14.984Z,104
2022-11-14T13:03:55.192Z,106
2022-11-14T13:09:35.757Z,100
2022-11-14T13:15:15.515Z,100
2022-11-14T13:20:58.637Z,102
2022-11-14T13:26:38.857Z,98
2022-11-14T13:32:18.711Z,106
2022-11-14T13:37:58.825Z,106
2022-11-14T13:43:42.817Z,94
2022-11-14T13:49:22.849Z,94
2022-11-14T13:55:02.656Z,104
2022-11-14T14:00:42.841Z,106
2022-11-14T14:06:23.246Z,84
2022-11-14T14:12:02.978Z,90
2022-11-14T14:17:43.072Z,104
2022-11-14T14:23:23.168Z,112
2022-11-14T14:29:07.097Z,100
2022-11-14T14:34:47.321Z,98
2022-11-14T14:40:27.442Z,92
2022-11-14T14:46:07.603Z,98
2022-11-14T14:57:27.915Z,104
2022-11-14T15:03:07.998Z,94
2022-11-14T15:08:48.264Z,110
2022-11-14T15:14:28.351Z,94
2022-11-14T15:20:08.579Z,106
2022-11-14T15:25:48.936Z,88
2022-11-14T15:31:29.282Z,92
2022-11-14T15:37:09.506Z,94
2022-11-14T15:42:49.945Z,102
2022-11-14T15:48:32.635Z,106
2022-11-14T15:54:13.305Z,106
2022-11-14T15:59:53.821Z,92
2022-11-14T16:05:33.841Z,98
2022-11-14T16:11:13.808Z,90
2022-11-14T16:16:53.778Z,106
2022-11-14T16:22:34.383Z,104
2022-11-14T16:28:14.874Z,90
2022-11-14T16:33:55.097Z,100
2022-11-14T16:39:35.184Z,84
2022-11-14T16:45:16.187Z,98
2022-11-14T16:50:57.638Z,98
2022-11-14T16:56:37.947Z,80
2022-11-14T17:02:30.801Z,94
2022-11-14T17:08:11.288Z,92
2022-11-14T17:13:51.431Z,100
2022-11-14T17:19:31.671Z,98
2022-11-14T17:25:14.055Z,98
2022-11-14T17:30:57.044Z,92
2022-11-14T17:36:37.506Z,82
2022-11-14T17:42:17.755Z,90
2022-11-14T17:48:00.871Z,90
2022-11-14T17:53:41.891Z,106
2022-11-14T17:59:21.972Z,86
2022-11-14T18:05:05.691Z,86
2022-11-14T18:10:46.010Z,104
2022-11-14T18:17:14.056Z,106
2022-11-14T18:22:54.714Z,116
2022-11-14T18:28:35.091Z,90
2022-11-14T18:34:15.124Z,120
2022-11-14T18:39:54.890Z,90
2022-11-14T18:51:14.974Z,94
2022-11-14T18:56:54.914Z,112
2022-11-14T19:02:35.802Z,110
2022-11-14T19:08:16.049Z,104
2022-11-14T19:13:55.987Z,102
2022-11-14T19:19:36.928Z,100
2022-11-14T19:25:17.006Z,96
2022-11-14T19:30:57.279Z,94
2022-11-14T19:37:05.193Z,90
2022-11-14T19:42:45.530Z,102
2022-11-14T19:48:25.628Z,104
2022-11-14T19:54:05.476Z,100
2022-11-14T19:59:45.539Z,100
2022-11-14T20:05:27.131Z,104
2022-11-14T20:11:07.067Z,94
2022-11-14T20:16:52.205Z,88
2022-11-14T20:22:36.176Z,90
2022-11-14T20:28:16.432Z,98
2022-11-14T20:33:57.146Z,94
2022-11-14T20:39:37.766Z,96
2022-11-14T20:45:17.794Z,100
2022-11-14T20:51:01.340Z,98
2022-11-14T20:56:41.874Z,104
2022-11-14T21:02:25.131Z,94
2022-11-14T21:08:05.280Z,82
2022-11-14T21:13:44.978Z,90
2022-11-14T21:19:24.803Z,90
2022-11-14T21:25:08.302Z,100
2022-11-14T21:30:48.165Z,94
2022-11-14T21:36:48.224Z,98
2022-11-14T21:42:28.705Z,104
2022-11-14T21:48:08.935Z,88
2022-11-14T21:53:49.715Z,92
2022-11-14T21:59:30.311Z,108
2022-11-14T22:05:13.126Z,94
2022-11-14T22:10:59.034Z,100
2022-11-14T22:16:39.710Z,116
2022-11-14T22:22:20.014Z,146
2022-11-14T22:28:00.415Z,106
2022-11-14T22:33:47.434Z,102
2022-11-14T22:39:28.455Z,102
2022-11-14T22:45:08.538Z,94
2022-11-14T22:50:49.645Z,110
2022-11-14T22:56:29.677Z,98
2022-11-14T23:02:10.280Z,104
2022-11-14T23:07:50.492Z,94
2022-11-14T23:13:33.728Z,88
2022-11-14T23:19:14.114Z,94
2022-11-14T23:24:54.480Z,100
2022-11-14T23:30:34.625Z,104
2022-11-14T23:36:15.137Z,104
2022-11-14T23:41:55.350Z,92
2022-11-14T23:47:35.481Z,92
2022-11-14T23:53:15.619Z,98
2022-11-14T23:58:56.012Z,106
